Time;durP1;ratioP1;P1;durP2;ratioP2;P2;SDS_P1;SDS_P2;PMS_P1;PMS_P2;Temp;Humidity;BMP_temperature;BMP_pressure;BME280_temperature;BME280_humidity;BME280_pressure;Samples;Min_cycle;Max_cycle;Signal;HPM_P1;HPM_P2
2022/06/26 00:01:41;;;;;;;12.38;6.28;;;18.40;99.90;;;;;;5072867;28;20351;-78
2022/06/26 00:04:10;;;;;;;11.05;6.53;;;18.40;99.90;;;;;;5057870;28;20063;-77
2022/06/26 00:06:37;;;;;;;12.23;6.50;;;18.40;99.90;;;;;;5089347;28;20455;-78
2022/06/26 00:09:03;;;;;;;13.80;7.47;;;18.40;99.90;;;;;;5073507;28;20040;-78
2022/06/26 00:11:29;;;;;;;11.00;7.30;;;18.40;99.90;;;;;;5072354;28;20050;-77
2022/06/26 00:13:55;;;;;;;12.35;7.40;;;18.40;99.90;;;;;;5072977;28;20052;-77
2022/06/26 00:16:21;;;;;;;12.02;8.25;;;18.30;99.90;;;;;;5072590;28;20561;-78
2022/06/26 00:18:48;;;;;;;12.55;8.40;;;18.30;99.90;;;;;;5056345;28;20531;-78
2022/06/26 00:21:14;;;;;;;13.88;9.27;;;18.40;99.90;;;;;;5072474;28;20072;-78
2022/06/26 00:23:40;;;;;;;14.30;8.35;;;18.40;99.90;;;;;;5056140;28;20129;-78
2022/06/26 00:26:05;;;;;;;15.13;9.65;;;18.40;99.90;;;;;;5055624;28;20048;-78
2022/06/26 00:28:31;;;;;;;13.05;9.32;;;18.30;99.90;;;;;;5066383;28;20055;-78
2022/06/26 00:30:57;;;;;;;14.07;10.10;;;18.30;99.90;;;;;;5049400;28;20183;-78
2022/06/26 00:33:23;;;;;;;12.57;9.30;;;18.30;99.90;;;;;;5063860;28;20120;-78
2022/06/26 00:35:49;;;;;;;15.75;10.07;;;18.20;99.90;;;;;;5032285;28;20124;-78
2022/06/26 00:38:15;;;;;;;14.48;10.55;;;18.20;99.90;;;;;;5050318;28;20032;-78
2022/06/26 00:40:42;;;;;;;15.95;10.85;;;18.20;99.90;;;;;;5069292;28;20036;-78
2022/06/26 00:43:08;;;;;;;14.43;10.38;;;18.20;99.90;;;;;;5035862;28;20079;-78
2022/06/26 00:45:34;;;;;;;15.63;10.77;;;18.20;99.90;;;;;;5032418;28;20080;-78
2022/06/26 00:48:00;;;;;;;15.43;11.02;;;18.10;99.90;;;;;;5045667;28;20123;-79
2022/06/26 00:50:26;;;;;;;13.93;11.02;;;18.10;99.90;;;;;;5032190;28;20206;-78
2022/06/26 00:52:53;;;;;;;15.68;11.48;;;18.10;99.90;;;;;;5048561;28;20044;-78
2022/06/26 00:55:20;;;;;;;16.23;12.45;;;18.10;99.90;;;;;;5047001;28;20052;-78
2022/06/26 00:57:46;;;;;;;16.83;12.55;;;18.00;99.90;;;;;;5068541;28;20032;-78
2022/06/26 01:00:13;;;;;;;14.48;10.82;;;18.00;99.90;;;;;;5068829;28;20044;-77
2022/06/26 01:02:40;;;;;;;17.90;12.63;;;18.00;99.90;;;;;;5051371;28;20040;-78
2022/06/26 01:05:07;;;;;;;17.13;11.57;;;18.00;99.90;;;;;;5034040;28;20044;-79
2022/06/26 01:07:33;;;;;;;17.42;11.43;;;18.00;99.90;;;;;;5037155;28;20124;-79
2022/06/26 01:09:59;;;;;;;16.08;11.32;;;18.00;99.90;;;;;;5048300;28;20125;-79
2022/06/26 01:12:24;;;;;;;16.00;11.18;;;18.00;99.90;;;;;;5047888;28;20044;-79
2022/06/26 01:14:53;;;;;;;15.48;11.45;;;17.90;99.90;;;;;;5031723;28;20053;-79
2022/06/26 01:17:19;;;;;;;17.70;10.90;;;17.90;99.90;;;;;;5040254;28;20491;-79
2022/06/26 01:19:46;;;;;;;14.75;10.80;;;17.80;99.90;;;;;;5051659;28;20044;-78
2022/06/26 01:22:12;;;;;;;15.52;11.57;;;17.80;99.90;;;;;;5051257;28;20362;-79
2022/06/26 01:24:37;;;;;;;15.02;11.27;;;17.80;99.90;;;;;;5031913;28;20362;-79
2022/06/26 01:27:03;;;;;;;20.17;13.63;;;17.80;99.90;;;;;;5043042;28;20406;-79
2022/06/26 01:29:29;;;;;;;16.70;13.00;;;17.70;99.90;;;;;;5051398;28;20040;-79
2022/06/26 01:31:56;;;;;;;17.40;11.38;;;17.70;99.90;;;;;;5068236;28;20056;-79
2022/06/26 01:34:21;;;;;;;19.20;13.95;;;17.80;99.90;;;;;;5051481;28;20101;-78
2022/06/26 01:36:47;;;;;;;19.08;14.43;;;17.80;99.90;;;;;;5067724;28;20036;-78
2022/06/26 01:39:13;;;;;;;20.23;13.52;;;18.00;99.90;;;;;;5051288;28;20086;-79
2022/06/26 01:41:39;;;;;;;18.10;13.07;;;18.10;99.90;;;;;;5014699;28;20066;-78
2022/06/26 01:44:07;;;;;;;18.48;12.43;;;18.20;99.90;;;;;;5031887;28;20036;-79
2022/06/26 01:46:34;;;;;;;16.55;12.43;;;18.30;99.90;;;;;;5031487;28;20045;-79
2022/06/26 01:49:00;;;;;;;17.40;12.18;;;18.30;99.90;;;;;;5050782;28;20079;-78
2022/06/26 01:51:25;;;;;;;19.42;12.27;;;18.30;99.90;;;;;;5050808;28;20040;-79
2022/06/26 01:53:51;;;;;;;18.05;11.50;;;18.40;99.90;;;;;;5049566;28;20121;-79
2022/06/26 01:56:17;;;;;;;17.25;11.65;;;18.40;99.90;;;;;;5030643;28;20041;-79
2022/06/26 01:58:43;;;;;;;15.70;11.05;;;18.40;99.90;;;;;;5031597;28;20041;-79
2022/06/26 02:01:09;;;;;;;16.50;11.18;;;18.40;99.90;;;;;;5047474;28;20517;-79
2022/06/26 02:03:35;;;;;;;14.43;10.57;;;18.50;99.90;;;;;;5014996;28;20036;-79
2022/06/26 02:06:01;;;;;;;17.15;11.30;;;18.50;99.90;;;;;;5030509;28;20519;-79
2022/06/26 02:08:27;;;;;;;16.73;11.65;;;18.50;99.90;;;;;;5015321;28;20049;-79
2022/06/26 02:13:37;;;;;;;19.30;11.40;;;18.50;99.90;;;;;;5019498;28;20056;-79
2022/06/26 02:16:14;;;;;;;15.52;10.23;;;18.50;99.90;;;;;;5063565;28;20053;-78
2022/06/26 02:18:42;;;;;;;17.95;10.65;;;18.50;99.90;;;;;;5045241;28;20090;-78
2022/06/26 02:21:10;;;;;;;16.60;10.70;;;18.50;99.90;;;;;;5054330;28;20044;-78
2022/06/26 02:23:37;;;;;;;15.07;11.10;;;18.50;99.90;;;;;;5053057;28;20029;-78
2022/06/26 02:26:05;;;;;;;16.85;10.35;;;18.50;99.90;;;;;;5030047;28;20114;-78
2022/06/26 02:28:31;;;;;;;14.52;9.57;;;18.60;99.90;;;;;;5042567;28;20142;-78
2022/06/26 02:30:57;;;;;;;16.90;9.93;;;18.60;99.90;;;;;;5016789;28;20104;-78
2022/06/26 02:33:23;;;;;;;16.77;10.75;;;18.60;99.90;;;;;;5034129;28;20044;-78
2022/06/26 02:35:50;;;;;;;16.25;9.95;;;18.60;99.90;;;;;;5066347;28;20048;-78
2022/06/26 02:38:15;;;;;;;17.15;10.80;;;18.60;99.90;;;;;;5047131;28;20037;-78
2022/06/26 02:40:42;;;;;;;15.75;10.48;;;18.60;99.90;;;;;;5031251;28;20064;-76
2022/06/26 02:43:08;;;;;;;15.45;10.15;;;18.60;99.90;;;;;;5041939;28;20118;-76
2022/06/26 02:45:34;;;;;;;15.18;9.80;;;18.60;99.90;;;;;;5033792;28;20112;-77
2022/06/26 02:47:59;;;;;;;15.90;9.48;;;18.50;99.90;;;;;;5033432;28;20295;-77
2022/06/26 02:50:25;;;;;;;13.95;7.97;;;18.50;99.90;;;;;;5049276;28;20106;-77
2022/06/26 02:52:53;;;;;;;14.55;7.53;;;18.40;99.90;;;;;;5046799;28;20041;-77
2022/06/26 02:55:18;;;;;;;11.10;7.10;;;18.30;99.90;;;;;;5044663;28;20048;-77
2022/06/26 02:57:44;;;;;;;11.00;6.43;;;18.30;99.90;;;;;;5066639;28;20043;-77
2022/06/26 03:00:12;;;;;;;11.82;5.72;;;18.20;99.90;;;;;;5050268;28;20040;-76
2022/06/26 03:02:38;;;;;;;13.00;5.63;;;18.10;99.90;;;;;;5049867;28;20040;-77
2022/06/26 03:05:05;;;;;;;11.35;5.18;;;18.10;99.90;;;;;;5031667;28;20033;-77
2022/06/26 03:07:31;;;;;;;10.85;5.70;;;18.00;99.90;;;;;;5049552;28;20529;-76
2022/06/26 03:09:57;;;;;;;12.82;6.30;;;18.00;99.90;;;;;;5034323;28;20037;-76
2022/06/26 03:12:22;;;;;;;10.20;6.13;;;17.90;99.90;;;;;;5050730;28;20033;-76
2022/06/26 03:14:48;;;;;;;13.82;6.05;;;17.90;99.90;;;;;;5033628;28;20131;-76
2022/06/26 03:17:15;;;;;;;12.18;5.78;;;17.90;99.90;;;;;;5034758;28;20167;-76
2022/06/26 03:19:41;;;;;;;11.15;4.68;;;17.80;99.90;;;;;;5047209;28;20112;-77
2022/06/26 03:22:07;;;;;;;9.13;4.40;;;17.80;99.90;;;;;;5070379;28;20047;-76
2022/06/26 03:24:33;;;;;;;11.98;4.78;;;17.80;99.90;;;;;;5034557;28;20033;-77
2022/06/26 03:26:59;;;;;;;9.90;4.20;;;17.80;99.90;;;;;;5036838;28;20050;-77
2022/06/26 03:29:26;;;;;;;10.05;4.13;;;17.80;99.90;;;;;;5059645;28;20049;-77
2022/06/26 03:31:51;;;;;;;10.13;4.20;;;17.80;99.90;;;;;;5049929;28;20057;-77
2022/06/26 03:34:17;;;;;;;9.85;4.47;;;17.80;99.90;;;;;;5050178;28;20037;-77
2022/06/26 03:36:43;;;;;;;8.55;4.15;;;17.80;99.90;;;;;;5016438;28;20124;-77
2022/06/26 03:39:09;;;;;;;9.63;4.43;;;17.80;99.90;;;;;;5033342;28;20064;-77
2022/06/26 03:41:34;;;;;;;11.25;4.47;;;17.80;99.90;;;;;;5032425;28;20226;-77
2022/06/26 03:44:00;;;;;;;8.65;3.85;;;17.80;99.90;;;;;;5053811;28;20041;-77
2022/06/26 03:46:26;;;;;;;8.85;3.88;;;17.80;99.90;;;;;;5053104;28;20505;-78
2022/06/26 03:48:52;;;;;;;7.90;3.75;;;17.80;99.90;;;;;;5033227;28;20492;-78
2022/06/26 03:51:17;;;;;;;9.05;3.80;;;17.80;99.90;;;;;;5052778;28;20063;-78
2022/06/26 03:53:44;;;;;;;8.70;3.45;;;17.70;99.90;;;;;;5034827;28;20106;-78
2022/06/26 03:56:10;;;;;;;9.05;3.78;;;17.70;99.90;;;;;;5052855;28;20050;-78
2022/06/26 03:58:36;;;;;;;8.43;3.55;;;17.80;99.90;;;;;;5036583;28;20041;-77
2022/06/26 04:01:01;;;;;;;9.80;3.80;;;17.80;99.90;;;;;;5053281;28;20082;-78
2022/06/26 04:03:27;;;;;;;8.25;3.58;;;17.80;99.90;;;;;;5052843;28;20506;-78
2022/06/26 04:05:53;;;;;;;9.82;3.50;;;17.80;99.90;;;;;;5069478;28;20033;-78
2022/06/26 04:08:19;;;;;;;9.48;3.25;;;17.80;99.90;;;;;;5053191;28;20446;-78
2022/06/26 04:10:45;;;;;;;8.25;3.25;;;17.80;99.90;;;;;;5052570;28;20124;-78
2022/06/26 04:13:12;;;;;;;9.63;3.40;;;17.80;99.90;;;;;;5052704;28;20064;-78
2022/06/26 04:15:39;;;;;;;7.93;3.58;;;17.70;99.90;;;;;;5069130;28;20048;-78
2022/06/26 04:18:07;;;;;;;9.23;3.50;;;17.70;99.90;;;;;;5069038;28;20068;-78
2022/06/26 04:20:33;;;;;;;8.63;3.42;;;17.70;99.90;;;;;;5032794;28;20403;-78
2022/06/26 04:23:01;;;;;;;8.27;3.42;;;17.70;99.90;;;;;;5052440;28;20036;-78
2022/06/26 04:25:28;;;;;;;8.40;3.28;;;17.70;99.90;;;;;;5052509;28;20037;-78
2022/06/26 04:27:55;;;;;;;8.27;3.70;;;17.70;99.90;;;;;;5050349;28;20076;-78
2022/06/26 04:30:21;;;;;;;8.65;3.50;;;17.70;99.90;;;;;;5016229;28;20333;-79
2022/06/26 04:32:47;;;;;;;10.35;3.35;;;17.70;99.90;;;;;;5048840;28;20559;-79
2022/06/26 04:35:13;;;;;;;9.43;3.67;;;17.70;99.90;;;;;;5049223;28;20041;-78
2022/06/26 04:37:40;;;;;;;6.97;3.10;;;17.70;99.90;;;;;;5046344;28;20392;-79
2022/06/26 04:40:08;;;;;;;7.70;2.90;;;17.70;99.90;;;;;;5052282;28;20044;-79
2022/06/26 04:42:34;;;;;;;8.20;3.17;;;17.70;99.90;;;;;;5052067;28;20037;-79
2022/06/26 04:45:00;;;;;;;9.23;3.50;;;17.70;99.90;;;;;;5052318;28;20033;-79
2022/06/26 04:47:26;;;;;;;7.55;3.20;;;17.70;99.90;;;;;;5068849;28;20038;-79
2022/06/26 04:49:52;;;;;;;10.40;3.40;;;17.70;99.90;;;;;;5049376;28;20114;-79
2022/06/26 04:52:18;;;;;;;7.82;3.15;;;17.70;99.90;;;;;;5031963;28;20475;-79
2022/06/26 04:54:44;;;;;;;7.68;3.30;;;17.80;99.90;;;;;;5058906;28;20052;-79
2022/06/26 04:57:11;;;;;;;8.68;3.40;;;17.80;99.90;;;;;;5031870;28;20120;-79
2022/06/26 04:59:36;;;;;;;7.68;3.28;;;17.80;99.90;;;;;;5052095;28;20072;-79
2022/06/26 05:02:04;;;;;;;8.05;3.00;;;17.80;99.90;;;;;;5018601;28;20079;-79
2022/06/26 05:04:30;;;;;;;8.80;3.47;;;17.80;99.90;;;;;;5051512;28;20064;-80
2022/06/26 05:06:55;;;;;;;8.15;3.60;;;17.80;99.90;;;;;;5041966;28;20452;-79
2022/06/26 05:09:22;;;;;;;9.05;3.50;;;17.80;99.90;;;;;;5052083;28;20417;-79
2022/06/26 05:11:48;;;;;;;7.35;2.92;;;17.80;99.90;;;;;;5051648;28;20321;-79
2022/06/26 05:14:15;;;;;;;8.05;3.30;;;17.90;99.90;;;;;;5068466;28;20056;-79
2022/06/26 05:16:41;;;;;;;8.85;3.40;;;17.90;99.90;;;;;;5067995;28;20051;-79
2022/06/26 05:19:07;;;;;;;7.60;3.40;;;17.90;99.90;;;;;;5054869;28;20033;-79
2022/06/26 05:21:33;;;;;;;8.25;3.40;;;17.90;99.90;;;;;;5031684;28;20048;-80
2022/06/26 05:23:59;;;;;;;7.63;3.47;;;18.00;99.90;;;;;;5063103;28;20411;-79
2022/06/26 05:26:24;;;;;;;8.13;3.50;;;18.00;99.90;;;;;;5051731;28;20068;-79
2022/06/26 05:28:50;;;;;;;7.20;3.20;;;18.00;99.90;;;;;;5050867;28;20127;-80
2022/06/26 05:31:16;;;;;;;7.95;3.50;;;18.10;99.90;;;;;;5051241;28;20040;-79
2022/06/26 05:33:42;;;;;;;8.25;3.50;;;18.10;99.90;;;;;;5068137;28;20052;-79
2022/06/26 05:36:08;;;;;;;9.10;3.50;;;18.20;99.90;;;;;;5066631;28;20047;-79
2022/06/26 05:38:35;;;;;;;8.73;3.60;;;18.30;99.90;;;;;;5051649;28;20040;-80
2022/06/26 05:41:01;;;;;;;7.55;3.08;;;18.30;99.90;;;;;;5063149;28;20043;-79
2022/06/26 05:43:27;;;;;;;8.02;3.33;;;18.40;99.90;;;;;;5047958;28;20037;-79
2022/06/26 05:45:53;;;;;;;7.85;3.38;;;18.40;99.90;;;;;;5014426;28;20119;-79
2022/06/26 05:48:19;;;;;;;8.90;3.47;;;18.30;99.90;;;;;;5042094;28;20149;-80
2022/06/26 05:50:45;;;;;;;7.85;3.65;;;18.20;99.90;;;;;;5067557;28;20450;-79
2022/06/26 05:53:11;;;;;;;7.72;3.58;;;18.20;99.90;;;;;;5050953;28;20494;-80
2022/06/26 05:55:38;;;;;;;8.52;3.47;;;18.20;99.90;;;;;;5050501;28;20068;-79
2022/06/26 05:58:05;;;;;;;7.15;3.42;;;18.20;99.90;;;;;;5050913;28;20552;-79
2022/06/26 06:00:32;;;;;;;8.32;3.53;;;18.20;99.90;;;;;;5050694;28;20052;-81
2022/06/26 06:02:58;;;;;;;7.00;3.50;;;18.20;99.90;;;;;;5067858;28;20110;-79
2022/06/26 06:05:25;;;;;;;8.63;3.90;;;18.30;99.90;;;;;;5032059;28;20487;-80
2022/06/26 06:07:52;;;;;;;9.40;3.90;;;18.30;99.90;;;;;;5050758;28;20514;-80
2022/06/26 06:10:19;;;;;;;8.23;3.78;;;18.30;99.90;;;;;;5052673;28;20071;-79
2022/06/26 06:12:46;;;;;;;8.88;4.55;;;18.40;99.90;;;;;;5030645;28;20045;-79
2022/06/26 06:15:12;;;;;;;9.88;4.50;;;18.50;99.90;;;;;;5030378;28;20542;-79
2022/06/26 06:17:41;;;;;;;9.10;5.13;;;18.50;99.90;;;;;;5030356;28;20045;-78
2022/06/26 06:20:07;;;;;;;9.65;4.68;;;18.50;99.90;;;;;;5030832;28;20051;-79
2022/06/26 06:22:33;;;;;;;9.48;4.38;;;18.50;99.90;;;;;;5053425;28;20041;-79
2022/06/26 06:24:59;;;;;;;9.85;5.00;;;18.50;99.90;;;;;;5034149;28;20094;-79
2022/06/26 06:27:25;;;;;;;9.38;5.10;;;18.60;99.90;;;;;;5066658;28;20059;-79
2022/06/26 06:29:50;;;;;;;9.63;5.28;;;18.60;99.90;;;;;;5067571;28;20044;-78
2022/06/26 06:32:16;;;;;;;9.80;5.38;;;18.70;99.90;;;;;;5065157;28;20178;-79
2022/06/26 06:34:42;;;;;;;11.13;5.68;;;18.80;99.90;;;;;;5050762;28;20045;-79
2022/06/26 06:37:08;;;;;;;11.07;5.68;;;18.80;99.90;;;;;;5062744;28;20080;-79
2022/06/26 06:39:34;;;;;;;10.77;6.32;;;18.90;99.90;;;;;;5030825;28;20045;-79
2022/06/26 06:41:59;;;;;;;11.02;6.32;;;18.90;99.90;;;;;;5034062;28;20037;-79
2022/06/26 06:44:25;;;;;;;11.38;6.50;;;19.00;99.90;;;;;;5034502;28;20033;-79
2022/06/26 06:46:51;;;;;;;11.38;6.70;;;19.00;99.90;;;;;;5050595;28;20041;-79
2022/06/26 06:49:17;;;;;;;11.55;6.72;;;19.00;99.90;;;;;;5053660;28;20044;-78
2022/06/26 06:51:42;;;;;;;12.05;8.13;;;19.00;99.90;;;;;;5055973;28;20041;-78
2022/06/26 06:54:08;;;;;;;11.00;6.93;;;19.00;99.90;;;;;;5022800;28;20040;-79
2022/06/26 06:56:34;;;;;;;13.40;8.75;;;19.00;99.90;;;;;;5037172;28;20060;-78
2022/06/26 06:59:00;;;;;;;14.88;9.85;;;19.10;99.90;;;;;;5057620;28;20392;-79
2022/06/26 07:01:26;;;;;;;13.13;8.32;;;19.00;99.90;;;;;;5054066;28;20036;-78
2022/06/26 07:03:51;;;;;;;11.75;8.10;;;19.00;99.90;;;;;;5054465;28;20123;-78
2022/06/26 07:06:17;;;;;;;14.55;9.80;;;19.10;99.90;;;;;;5041408;28;20455;-78
2022/06/26 07:08:43;;;;;;;14.65;10.18;;;19.10;99.90;;;;;;5034031;28;20037;-78
2022/06/26 07:11:08;;;;;;;15.77;9.85;;;19.00;99.90;;;;;;5017328;28;20094;-78
2022/06/26 07:13:34;;;;;;;14.23;9.93;;;19.00;99.90;;;;;;5035077;28;20125;-78
2022/06/26 07:16:01;;;;;;;13.95;9.88;;;19.00;99.90;;;;;;5053546;28;20054;-78
2022/06/26 07:18:28;;;;;;;15.20;10.45;;;19.00;99.90;;;;;;5037090;28;20040;-78
2022/06/26 07:20:54;;;;;;;16.20;10.57;;;19.00;99.90;;;;;;5037068;28;20304;-78
2022/06/26 07:23:20;;;;;;;14.63;10.48;;;19.10;99.90;;;;;;5070438;28;20032;-79
2022/06/26 07:25:46;;;;;;;15.05;10.95;;;19.30;99.90;;;;;;5053612;28;20052;-78
2022/06/26 07:28:13;;;;;;;14.80;10.98;;;19.30;99.90;;;;;;5040014;28;20045;-78
2022/06/26 07:30:38;;;;;;;15.88;10.63;;;19.40;99.90;;;;;;5053729;28;20059;-79
2022/06/26 07:34:12;;;;;;;15.60;10.90;;;19.40;99.90;;;;;;5037382;28;20439;-78
2022/06/26 07:35:52;;;;;;;15.45;11.32;;;19.40;99.90;;;;;;5056142;28;20080;-77
2022/06/26 07:38:18;;;;;;;14.57;11.38;;;19.40;99.90;;;;;;5033992;28;20044;-77
2022/06/26 07:40:43;;;;;;;15.30;11.50;;;19.30;99.90;;;;;;5049767;28;20426;-78
2022/06/26 07:43:09;;;;;;;18.73;12.00;;;19.30;99.90;;;;;;5033718;28;20072;-77
2022/06/26 07:45:35;;;;;;;14.90;11.43;;;19.20;99.90;;;;;;5016910;28;20355;-78
2022/06/26 07:48:01;;;;;;;16.55;11.80;;;19.10;99.90;;;;;;5016506;28;20044;-78
2022/06/26 07:50:27;;;;;;;16.30;12.02;;;19.50;99.90;;;;;;5033122;28;20041;-78
2022/06/26 07:52:53;;;;;;;14.52;10.80;;;19.20;99.90;;;;;;5032362;28;20052;-77
2022/06/26 07:55:18;;;;;;;17.60;12.60;;;19.20;99.90;;;;;;5028507;28;20045;-78
2022/06/26 07:57:44;;;;;;;16.15;11.93;;;19.20;99.90;;;;;;5019577;28;20455;-78
2022/06/26 08:00:10;;;;;;;16.05;11.57;;;19.30;99.90;;;;;;5033179;28;20040;-79
2022/06/26 08:02:36;;;;;;;17.67;11.88;;;19.30;99.90;;;;;;5046057;28;20044;-78
2022/06/26 08:05:02;;;;;;;16.38;11.85;;;19.30;99.90;;;;;;5035949;28;20044;-78
2022/06/26 08:07:28;;;;;;;16.00;11.80;;;19.30;99.90;;;;;;5040319;28;20068;-78
2022/06/26 08:09:53;;;;;;;16.38;11.73;;;19.40;99.90;;;;;;5032906;28;20473;-78
2022/06/26 08:12:19;;;;;;;17.58;12.60;;;19.50;99.90;;;;;;5027426;28;20098;-78
2022/06/26 08:14:45;;;;;;;16.65;12.07;;;19.60;99.90;;;;;;5052658;28;20072;-78
2022/06/26 08:17:11;;;;;;;16.70;12.43;;;19.60;99.90;;;;;;5052432;28;20044;-78
2022/06/26 08:19:36;;;;;;;16.05;12.85;;;19.80;99.90;;;;;;5035949;28;20051;-78
2022/06/26 08:22:02;;;;;;;17.92;12.82;;;20.00;99.90;;;;;;5035555;28;20090;-78
2022/06/26 08:24:32;;;;;;;17.30;12.27;;;20.30;99.90;;;;;;5035867;28;20032;-78
2022/06/26 08:27:00;;;;;;;16.73;12.05;;;20.40;99.90;;;;;;5035945;28;20045;-78
2022/06/26 08:29:26;;;;;;;17.33;11.10;;;20.50;99.90;;;;;;5052319;28;20137;-78
2022/06/26 08:31:52;;;;;;;15.00;11.05;;;20.50;99.90;;;;;;5068732;28;20254;-79
2022/06/26 08:34:19;;;;;;;15.40;10.52;;;20.50;99.90;;;;;;5051829;28;20116;-80
2022/06/26 08:36:45;;;;;;;15.00;10.40;;;20.30;99.90;;;;;;5051915;28;20402;-78
2022/06/26 08:39:11;;;;;;;14.50;10.30;;;20.30;99.90;;;;;;5052051;28;20056;-78
2022/06/26 08:41:40;;;;;;;12.85;8.45;;;20.50;99.90;;;;;;5068665;28;20320;-79
2022/06/26 08:44:07;;;;;;;12.15;7.72;;;20.70;99.90;;;;;;5068450;28;20040;-78
2022/06/26 08:46:37;;;;;;;13.68;8.27;;;20.90;99.90;;;;;;5015401;28;20037;-78
2022/06/26 08:49:16;;;;;;;13.00;8.50;;;21.00;99.90;;;;;;5051223;28;20043;-78
2022/06/26 08:51:46;;;;;;;14.07;8.45;;;21.20;99.90;;;;;;5048443;28;20538;-79
2022/06/26 08:54:13;;;;;;;11.55;7.72;;;21.40;99.90;;;;;;5037393;28;20079;-79
2022/06/26 08:56:41;;;;;;;15.63;8.32;;;21.40;99.90;;;;;;5085078;28;20051;-78
2022/06/26 08:59:15;;;;;;;14.02;8.52;;;21.30;99.90;;;;;;5035459;28;20095;-78
2022/06/26 09:01:42;;;;;;;13.02;8.38;;;21.20;99.90;;;;;;5035046;28;20056;-78
2022/06/26 09:04:08;;;;;;;13.95;9.20;;;21.20;99.90;;;;;;5033640;28;20495;-78
2022/06/26 09:06:35;;;;;;;14.60;9.43;;;21.20;99.90;;;;;;5051483;28;20040;-78
2022/06/26 09:09:24;;;;;;;14.38;8.43;;;21.20;99.90;;;;;;5051070;28;20453;-78
2022/06/26 09:11:52;;;;;;;13.35;8.25;;;21.20;99.90;;;;;;5067788;28;20079;-79
2022/06/26 09:14:20;;;;;;;11.80;7.25;;;21.20;99.90;;;;;;5051259;28;20509;-79
2022/06/26 09:16:48;;;;;;;12.73;7.75;;;21.30;99.90;;;;;;5047144;28;20072;-79
2022/06/26 09:19:20;;;;;;;13.15;7.97;;;21.50;99.90;;;;;;5048470;28;20033;-79
2022/06/26 09:21:49;;;;;;;12.57;8.40;;;21.60;99.90;;;;;;5031380;28;20365;-78
2022/06/26 09:24:17;;;;;;;10.13;4.65;;;21.80;99.90;;;;;;5048158;28;20374;-79
2022/06/26 09:26:43;;;;;;;9.70;5.40;;;21.90;99.90;;;;;;5024570;28;20045;-79
2022/06/26 09:29:14;;;;;;;12.25;5.35;;;21.90;99.90;;;;;;5054084;28;20043;-79
2022/06/26 09:31:41;;;;;;;10.27;4.90;;;21.90;99.90;;;;;;5050817;28;20097;-78
2022/06/26 09:34:18;;;;;;;10.85;5.20;;;21.90;99.90;;;;;;5050948;28;20036;-78
2022/06/26 09:36:56;;;;;;;9.88;3.90;;;22.00;99.90;;;;;;5055747;28;20044;-78
2022/06/26 09:39:21;;;;;;;8.57;4.25;;;22.20;99.90;;;;;;5031069;28;20045;-78
2022/06/26 09:41:47;;;;;;;7.30;2.90;;;22.30;99.90;;;;;;5031414;28;20044;-78
2022/06/26 09:44:20;;;;;;;7.85;2.95;;;22.40;99.90;;;;;;5031325;28;20508;-79
2022/06/26 09:46:46;;;;;;;7.38;2.70;;;22.30;99.90;;;;;;5014590;28;20044;-78
2022/06/26 09:49:12;;;;;;;7.60;3.30;;;22.30;99.90;;;;;;5031068;28;20052;-79
2022/06/26 09:51:40;;;;;;;8.25;3.55;;;22.30;99.90;;;;;;5031142;28;20056;-78
2022/06/26 09:54:06;;;;;;;9.38;3.42;;;22.40;99.90;;;;;;5052180;28;20044;-78
2022/06/26 09:56:33;;;;;;;8.52;3.35;;;22.50;99.90;;;;;;5067465;28;20178;-78
2022/06/26 09:58:59;;;;;;;8.18;3.50;;;22.70;99.90;;;;;;5051107;28;20036;-78
2022/06/26 10:07:02;;;;;;;7.88;3.67;;;23.10;99.90;;;;;;5052788;28;20568;-78
2022/06/26 10:09:29;;;;;;;10.30;3.88;;;23.10;99.90;;;;;;5051033;28;20040;-79
2022/06/26 10:12:00;;;;;;;9.15;3.70;;;22.90;99.90;;;;;;5050333;28;20048;-79
2022/06/26 10:14:34;;;;;;;8.90;3.75;;;22.80;99.90;;;;;;5066832;28;20149;-77
2022/06/26 10:17:19;;;;;;;8.82;3.63;;;22.70;99.90;;;;;;5066981;28;20048;-78
2022/06/26 10:19:49;;;;;;;10.55;4.63;;;22.80;99.90;;;;;;5050487;28;20051;-78
2022/06/26 10:22:15;;;;;;;7.55;3.50;;;22.80;99.90;;;;;;5067274;28;20135;-79
2022/06/26 10:24:55;;;;;;;7.70;2.88;;;22.70;99.90;;;;;;5067319;28;20036;-80
2022/06/26 10:27:29;;;;;;;9.30;4.10;;;22.70;99.90;;;;;;5050061;28;20230;-79
2022/06/26 10:30:05;;;;;;;8.32;4.38;;;22.60;99.90;;;;;;5067173;28;20144;-80
2022/06/26 10:32:31;;;;;;;8.98;4.35;;;22.50;99.90;;;;;;5050556;28;20040;-79
2022/06/26 10:34:57;;;;;;;8.95;3.95;;;22.50;99.90;;;;;;5066539;28;20458;-79
2022/06/26 10:37:23;;;;;;;7.68;3.10;;;22.70;99.90;;;;;;5029937;28;20483;-79
2022/06/26 10:39:52;;;;;;;7.88;3.10;;;23.10;99.90;;;;;;5030893;28;20092;-79
2022/06/26 10:45:06;;;;;;;7.35;2.83;;;23.40;99.90;;;;;;5059097;28;20120;-79
2022/06/26 10:47:57;;;;;;;8.13;3.10;;;23.40;99.90;;;;;;5050803;28;20044;-79
2022/06/26 10:50:27;;;;;;;8.13;3.03;;;23.40;99.90;;;;;;5044075;28;20051;-79
2022/06/26 10:53:16;;;;;;;6.75;2.40;;;23.30;99.90;;;;;;5030057;28;20534;-79
2022/06/26 10:55:45;;;;;;;5.78;2.25;;;23.20;99.90;;;;;;5048161;28;20045;-79
2022/06/26 10:58:27;;;;;;;6.57;2.28;;;23.10;99.90;;;;;;5051347;28;20536;-79
2022/06/26 11:00:55;;;;;;;5.72;2.30;;;23.00;99.90;;;;;;5029930;28;20041;-79
2022/06/26 11:03:21;;;;;;;7.18;2.58;;;22.90;99.90;;;;;;5046646;28;20041;-79
2022/06/26 11:05:52;;;;;;;6.60;2.45;;;22.90;99.90;;;;;;5046146;28;20052;-79
2022/06/26 11:08:50;;;;;;;6.22;2.53;;;22.90;99.90;;;;;;5030794;28;20075;-79
2022/06/26 11:11:23;;;;;;;7.47;2.70;;;22.90;99.90;;;;;;5042550;28;20132;-79
2022/06/26 11:13:54;;;;;;;6.72;2.70;;;22.90;99.90;;;;;;5030222;28;20053;-78
2022/06/26 11:16:35;;;;;;;8.02;3.05;;;23.00;99.90;;;;;;5029445;28;20041;-79
2022/06/26 11:19:05;;;;;;;7.68;2.72;;;23.00;99.90;;;;;;5030174;28;20498;-79
2022/06/26 11:21:31;;;;;;;8.02;2.90;;;23.10;99.90;;;;;;5046314;28;20309;-80
2022/06/26 11:23:58;;;;;;;7.03;2.65;;;23.10;99.90;;;;;;5030329;28;20514;-79
2022/06/26 11:26:24;;;;;;;7.82;2.50;;;23.30;99.90;;;;;;5051154;28;20112;-79
2022/06/26 11:28:59;;;;;;;6.57;2.30;;;23.40;99.90;;;;;;5006381;28;20425;-79
2022/06/26 11:31:27;;;;;;;6.55;2.42;;;23.50;99.90;;;;;;5033260;28;20041;-80
2022/06/26 11:33:53;;;;;;;7.28;2.85;;;23.60;99.90;;;;;;5059934;28;20040;-79
2022/06/26 11:36:19;;;;;;;6.20;2.30;;;23.80;99.90;;;;;;5053164;28;20406;-78
2022/06/26 11:38:55;;;;;;;10.20;2.90;;;23.80;99.90;;;;;;5053320;28;20040;-79
2022/06/26 11:41:24;;;;;;;7.60;2.20;;;23.80;99.90;;;;;;5053062;28;20044;-79
2022/06/26 11:43:55;;;;;;;6.60;2.40;;;23.80;99.90;;;;;;5069893;28;20051;-79
2022/06/26 11:46:21;;;;;;;8.60;2.30;;;23.70;99.90;;;;;;5052837;28;20363;-80
2022/06/26 11:48:52;;;;;;;6.72;2.13;;;23.70;99.90;;;;;;5053189;28;20503;-79
2022/06/26 11:51:19;;;;;;;7.30;2.60;;;23.70;99.90;;;;;;5053125;28;20040;-78
2022/06/26 11:53:47;;;;;;;7.90;2.38;;;23.60;99.90;;;;;;5053826;28;20098;-78
2022/06/26 11:56:21;;;;;;;6.13;2.10;;;23.60;99.90;;;;;;5052791;28;20044;-78
2022/06/26 11:58:50;;;;;;;6.97;2.13;;;23.80;99.90;;;;;;5070068;28;20116;-79
2022/06/26 12:01:17;;;;;;;6.55;2.22;;;24.00;99.90;;;;;;5052945;28;20123;-80
2022/06/26 12:03:49;;;;;;;5.80;2.08;;;24.20;99.90;;;;;;5052966;28;20028;-80
2022/06/26 12:06:27;;;;;;;8.27;2.53;;;24.40;99.90;;;;;;5065470;28;20555;-80
2022/06/26 12:08:53;;;;;;;7.50;2.20;;;24.50;99.90;;;;;;5033153;28;20049;-79
2022/06/26 12:11:18;;;;;;;6.82;2.35;;;24.60;99.90;;;;;;5049450;28;20037;-80
2022/06/26 12:13:44;;;;;;;6.25;2.20;;;24.70;99.90;;;;;;5016592;28;20053;-80
2022/06/26 12:16:11;;;;;;;7.47;2.30;;;24.70;99.90;;;;;;5032838;28;20049;-77
2022/06/26 12:18:38;;;;;;;8.15;2.72;;;24.80;99.90;;;;;;5016418;28;20112;-79
2022/06/26 12:21:14;;;;;;;6.75;2.28;;;24.80;99.90;;;;;;5048917;28;20045;-79
2022/06/26 12:23:43;;;;;;;6.97;2.00;;;24.80;99.90;;;;;;5049552;28;20048;-79
2022/06/26 12:26:10;;;;;;;7.28;2.20;;;24.70;99.90;;;;;;5032718;28;20048;-79
2022/06/26 12:29:07;;;;;;;6.47;2.15;;;24.70;99.90;;;;;;5032872;28;20040;-79
2022/06/26 12:31:33;;;;;;;7.03;2.25;;;24.80;99.90;;;;;;5056778;28;20052;-78
2022/06/26 12:33:58;;;;;;;8.70;2.30;;;24.80;99.90;;;;;;5050875;28;20051;-78
2022/06/26 12:36:24;;;;;;;6.57;2.08;;;24.80;99.90;;;;;;5068699;28;20044;-79
2022/06/26 12:38:50;;;;;;;7.53;2.17;;;24.90;99.90;;;;;;5051861;28;20036;-78
2022/06/26 12:41:18;;;;;;;7.60;2.30;;;25.00;99.90;;;;;;5052061;28;20086;-78
2022/06/26 12:43:46;;;;;;;6.55;2.30;;;25.10;99.90;;;;;;5061816;28;20402;-79
2022/06/26 12:46:12;;;;;;;7.32;2.22;;;25.00;99.90;;;;;;5038175;28;20498;-79
2022/06/26 12:48:38;;;;;;;7.40;2.30;;;24.90;99.90;;;;;;5052000;28;20070;-79
2022/06/26 12:51:04;;;;;;;8.45;2.55;;;24.80;99.90;;;;;;5032014;28;20052;-79